ROMMA est une association bénévole à but non lucratif. Votre soutien est indispensable : ADHERER à ROMMA ou FAIRE un DON

Crempigny - (74, Haute-Savoie)

Albanais-Montagne des Princes (500 m)   Longitude: 05° 54' 5" E   Latitude: 45° 57' 0" N Station partenaire n°10
 

Détail journalier du     <<     >>

Température Precipitation Humidité Pression Vent Dir Rafale Dir. rafale Ensol.
Heure (°C) (mm) (%) (hPa) (km/h) (km/h) (min)
01:00 16.707310186SE18SSE0
02:00 16.107110183SSE18SSE0
03:00 14.708110172SSE6SSE0
04:00 13.609010173N10SSO0
05:00 13.309010172N6N0
06:00 12.209110172NNE6NNE0
07:00 13.308810173NNE8NNE0
08:00 13.109210171NNE5NNE0
09:00 14.908410173NNE6NNE30
10:00 17.607310173SE8S60
11:00 19.107110163SSE8SE60
12:00 21.306610164S11SO60
13:00 22.805410154ENE15NO60
14:00 23.704810155NNE16NO60
15:00 24.805110145O16O60
16:00 24.704610146NO18NO40
17:00 25.105110139NO19NNO30
18:00 25.105510136NO18NNO50
19:00 24.8051101210NO19NO60
20:00 23.7053101211NO21NO40
21:00 21.305810129NO18NO0
22:00 20.4057101211NO18NO0
23:00 20.3055101214ONO19ONO0
minuit 18.506410125SSE19ONO0

Graphique du 02-06-2020

 

Serveur OMMA